Elmore, MN (56027)

9:01 AM CST on February 06, 2016 (GMT -0600)
Faribault County Law Enforcement Center | | Change Station
CLOSE
Current Station
Personal Weather Station
Location: Blue Earth, MN
Elevation: 1079 ft
Nearby Weather Stations
Active Advisory: Blizzard Watch

Elev 1079 ft 43.65 °N, 94.10 °W | Updated 5 minutes ago

Fog
Fog
26.3 °F
Feels Like 19 °F
N
6.0
Wind Variable Wind from SW
Gusts 15.0 mph

Today
High -- | Low -- °F
--% Chance of Precip.
Yesterday
High -- | Low -- °F
Precip. -- in
Pressure 30.11 in
Visibility 1.8 miles
Clouds Overcast 200 ft
Windchill 19 °F
Dew Point 25 °F
Humidity 96%
Rainfall 0.00 in
Snow Depth Not available.
7:27 AM 5:34 PM
Waning Crescent, 5% visible
METAR KFRM 061455Z AUTO 21010KT 1 3/4SM OVC002 M04/M06 A3011 RMK AO1 57014
Pressure 30.11 in
Visibility 1.8 miles
Clouds Overcast 200 ft
Windchill 19 °F
Dew Point 25 °F
Humidity 96%
Rainfall 0.00 in
Snow Depth Not available.
7:27 AM 5:34 PM
Waning Crescent, 5% visible
METAR KFRM 061455Z AUTO 21010KT 1 3/4SM OVC002 M04/M06 A3011 RMK AO1 57014

10-Day Weather Forecast

Almanac

Astronomy

Feb. 06, 2016 Rise Set
Actual Time
Civil Twilight
Nautical Twilight
Astronomical Twilight
Moon
Length of Visible Light
Length of Day
Tomorrow will be .
, % of the Moon is Illuminated

Today's Extremes

State Highs State Lows

Community

WunderPhotos

Upload Photos

1,890,984 photos uploaded!

WunderBlog® & News

Nearby

Air Quality

  Air Quality AQ Index Pollutant
Not available.

Snow Depth

Station Depth Elevation

Earthquake Activity

City Distance Mag. Time & Date
Minimum magnitude displayed is 2.5.

Coastal Water Temperatures

Place Temperature

Stations

Nearby Weather Stations

Station Location Temp. Windchill Dew Point Humidity Wind Precip. Elev Updated Type
                   

Watches & Warnings

Blizzard Watch
Issued: 3:04 AM CST Feb. 6, 2016 – National Weather Service

... Blizzard watch in effect from Sunday afternoon through Monday
morning...

The National Weather Service in Twin Cities/Chanhassen has issued
a blizzard watch... which is in effect from Sunday afternoon
through Monday morning.

* Blizzard conditions are possible from Sunday afternoon through
Monday morning.

* Winds gusting as high as 40 to 50 mph could cause whiteout
conditions in blowing snow. Significant drifting of the snow is
likely.

* Total snow accumulations of up to 2 inches are possible.

* Travel could be very difficult or impossible... including during
the morning commute on Monday.

Precautionary/preparedness actions...

A blizzard watch means there is a potential for falling and
blowing snow with strong winds and extremely poor visibilities.
This can lead to whiteout conditions and make travel very
dangerous.